createdAt,value
2023-04-02T00:01:28.105Z,26.04
2023-04-02T00:04:04.962Z,26.02
2023-04-02T00:06:41.753Z,27.88
2023-04-02T00:09:16.030Z,28.84
2023-04-02T00:11:50.114Z,27.99
2023-04-02T00:14:26.406Z,27.61
2023-04-02T00:16:59.663Z,28.19
2023-04-02T00:19:51.242Z,28.73
2023-04-02T00:22:27.981Z,28.55
2023-04-02T00:25:00.353Z,27.55
2023-04-02T00:27:33.843Z,28.00
2023-04-02T00:30:05.751Z,27.22
2023-04-02T00:32:38.155Z,26.91
2023-04-02T00:35:38.767Z,25.09
2023-04-02T00:38:20.609Z,24.74
2023-04-02T00:40:52.791Z,25.22
2023-04-02T00:43:26.493Z,24.62
2023-04-02T00:46:00.490Z,24.16
2023-04-02T00:48:34.887Z,25.30
2023-04-02T00:51:26.413Z,27.42
2023-04-02T00:53:58.956Z,27.83
2023-04-02T00:56:50.821Z,27.30
2023-04-02T00:59:34.743Z,28.55
2023-04-02T01:02:21.544Z,28.32
2023-04-02T01:05:01.085Z,28.35
2023-04-02T01:07:40.072Z,28.27
2023-04-02T01:10:27.441Z,28.76
2023-04-02T01:13:16.754Z,29.31
2023-04-02T01:16:14.408Z,29.26
2023-04-02T01:19:08.813Z,28.21
2023-04-02T01:22:08.669Z,26.70
2023-04-02T01:24:40.874Z,27.68
2023-04-02T01:27:18.753Z,26.27
2023-04-02T01:29:54.274Z,28.18
2023-04-02T01:32:26.877Z,27.91
2023-04-02T01:34:59.957Z,27.77
2023-04-02T01:37:38.209Z,26.84
2023-04-02T01:40:20.789Z,27.89
2023-04-02T01:43:19.301Z,25.97
2023-04-02T01:45:50.865Z,26.08
2023-04-02T01:48:29.082Z,25.72
2023-04-02T01:51:02.149Z,26.01
2023-04-02T01:53:33.809Z,27.33
2023-04-02T01:56:06.378Z,28.39
2023-04-02T01:58:38.300Z,27.66
2023-04-02T02:01:40.854Z,28.81
2023-04-02T02:04:16.286Z,29.10
2023-04-02T02:06:48.812Z,29.04
2023-04-02T02:09:28.878Z,27.99
2023-04-02T02:12:01.857Z,28.44
2023-04-02T02:14:34.351Z,28.18
2023-04-02T02:17:06.210Z,27.13
2023-04-02T02:19:52.185Z,27.74
2023-04-02T02:22:29.648Z,27.68
2023-04-02T02:25:06.871Z,26.04
2023-04-02T02:27:57.840Z,27.29
2023-04-02T02:30:44.470Z,28.17
2023-04-02T02:33:29.454Z,27.89
2023-04-02T02:36:08.494Z,27.91
2023-04-02T02:38:58.486Z,28.31
2023-04-02T02:41:45.488Z,27.77
2023-04-02T02:44:25.829Z,28.00
2023-04-02T02:47:06.763Z,28.43
2023-04-02T02:49:51.728Z,27.18
2023-04-02T02:52:34.516Z,27.79
2023-04-02T02:55:20.152Z,27.21
2023-04-02T02:58:12.577Z,27.86
2023-04-02T03:00:56.812Z,27.58
2023-04-02T03:03:34.624Z,28.03
2023-04-02T03:06:13.227Z,27.63
2023-04-02T03:09:16.473Z,28.03
2023-04-02T03:12:06.010Z,27.89
2023-04-02T03:14:46.969Z,26.96
2023-04-02T03:17:23.621Z,27.55
2023-04-02T03:20:07.916Z,27.32
2023-04-02T03:22:48.044Z,27.26
2023-04-02T03:25:34.328Z,27.03
2023-04-02T03:28:09.525Z,27.55
2023-04-02T03:30:50.610Z,26.84
2023-04-02T03:33:50.757Z,27.29
2023-04-02T03:36:45.019Z,26.13
2023-04-02T03:39:46.862Z,26.91
2023-04-02T03:42:39.716Z,26.69
2023-04-02T03:45:17.361Z,25.86
2023-04-02T03:47:56.648Z,25.63
2023-04-02T03:50:35.676Z,25.71
2023-04-02T03:53:08.059Z,24.98
2023-04-02T03:55:40.501Z,24.78
2023-04-02T03:58:26.732Z,24.74
2023-04-02T04:01:27.195Z,25.18
2023-04-02T04:04:06.498Z,24.86
2023-04-02T04:06:39.092Z,24.72
2023-04-02T04:09:30.458Z,24.13
2023-04-02T04:12:26.126Z,24.84
2023-04-02T04:15:39.773Z,24.56
2023-04-02T04:18:39.432Z,23.97
2023-04-02T04:21:47.012Z,24.49
2023-04-02T04:24:28.451Z,24.59
2023-04-02T04:27:36.109Z,25.09
2023-04-02T04:30:19.793Z,24.33
2023-04-02T04:33:13.820Z,23.99
2023-04-02T04:35:52.276Z,24.66
2023-04-02T04:38:37.160Z,24.45
2023-04-02T04:41:14.603Z,24.35
2023-04-02T04:43:57.246Z,24.13
2023-04-02T04:46:33.605Z,23.97
2023-04-02T04:49:11.842Z,23.79
2023-04-02T04:51:55.066Z,23.97
2023-04-02T04:54:29.760Z,23.70
2023-04-02T04:57:06.136Z,23.46
2023-04-02T04:59:58.530Z,23.31
2023-04-02T05:03:03.349Z,23.30
2023-04-02T05:05:40.290Z,23.21
2023-04-02T05:08:17.690Z,23.23
2023-04-02T05:10:53.461Z,23.14
2023-04-02T05:13:33.929Z,22.88
2023-04-02T05:16:24.335Z,22.98
2023-04-02T05:18:58.965Z,22.84
2023-04-02T05:21:31.365Z,22.71
2023-04-02T05:24:45.866Z,22.51
2023-04-02T05:27:44.699Z,22.21
2023-04-02T05:30:27.963Z,21.87
2023-04-02T05:33:09.331Z,22.00
2023-04-02T05:35:45.762Z,22.10
2023-04-02T05:38:28.133Z,21.78
2023-04-02T05:41:05.652Z,21.80
2023-04-02T05:43:39.952Z,21.93
2023-04-02T05:46:23.563Z,21.92
2023-04-02T05:49:01.203Z,21.57
2023-04-02T05:51:45.310Z,21.48
2023-04-02T05:54:36.766Z,21.23
2023-04-02T05:57:43.767Z,21.11
2023-04-02T06:00:42.385Z,20.92
2023-04-02T06:03:39.784Z,20.93
2023-04-02T06:06:27.374Z,20.83
2023-04-02T06:09:07.140Z,20.90
2023-04-02T06:11:56.467Z,20.77
2023-04-02T06:14:28.064Z,20.52
2023-04-02T06:16:59.591Z,20.70
2023-04-02T06:19:32.491Z,20.33
2023-04-02T06:22:13.113Z,20.30
2023-04-02T06:24:46.954Z,20.23
2023-04-02T06:27:21.703Z,20.22
2023-04-02T06:29:57.662Z,20.12
2023-04-02T06:32:33.453Z,20.26
2023-04-02T06:35:05.534Z,19.85
2023-04-02T06:37:44.118Z,19.79
2023-04-02T06:40:37.308Z,19.69
2023-04-02T06:43:34.755Z,19.71
2023-04-02T06:46:58.533Z,19.70
2023-04-02T06:49:40.019Z,19.44
2023-04-02T06:52:46.399Z,19.35
2023-04-02T06:55:28.669Z,19.35
2023-04-02T06:58:02.627Z,19.32
2023-04-02T07:00:52.723Z,19.30
2023-04-02T07:03:33.464Z,19.21
2023-04-02T07:06:18.181Z,19.11
2023-04-02T07:08:51.463Z,19.15
2023-04-02T07:11:25.092Z,19.03
2023-04-02T07:13:58.941Z,19.09
2023-04-02T07:16:32.809Z,18.94
2023-04-02T07:19:05.717Z,18.94
2023-04-02T07:21:39.667Z,19.00
2023-04-02T07:24:10.726Z,18.87
2023-04-02T07:26:42.232Z,18.77
2023-04-02T07:29:17.497Z,18.71
2023-04-02T07:31:49.025Z,18.85
2023-04-02T07:34:20.842Z,18.87
2023-04-02T07:36:52.824Z,18.82
2023-04-02T07:39:24.142Z,18.54
2023-04-02T07:42:03.033Z,18.53
2023-04-02T07:44:43.087Z,18.57
2023-04-02T07:47:14.454Z,18.39
2023-04-02T07:49:46.143Z,18.41
2023-04-02T07:52:18.122Z,18.46
2023-04-02T07:54:50.193Z,18.44
2023-04-02T07:57:24.520Z,18.45
2023-04-02T07:59:58.142Z,18.45
2023-04-02T08:02:29.651Z,18.38
2023-04-02T08:05:00.836Z,18.32
2023-04-02T08:07:32.813Z,18.27
2023-04-02T08:10:04.924Z,18.15
2023-04-02T08:12:36.368Z,18.22
2023-04-02T08:15:08.852Z,18.25
2023-04-02T08:17:42.787Z,18.28
2023-04-02T08:20:19.665Z,18.20
2023-04-02T08:22:51.976Z,18.15
2023-04-02T08:25:23.553Z,18.28
2023-04-02T08:27:54.925Z,18.20
2023-04-02T08:30:26.253Z,18.25
2023-04-02T08:32:57.487Z,18.21
2023-04-02T08:35:29.021Z,18.27
2023-04-02T08:38:00.239Z,18.33
2023-04-02T08:40:36.167Z,18.37
2023-04-02T08:43:51.553Z,18.25
2023-04-02T08:46:44.079Z,18.12
2023-04-02T08:49:17.625Z,18.17
2023-04-02T08:51:48.997Z,18.00
2023-04-02T08:54:30.808Z,17.92
2023-04-02T08:57:13.584Z,17.85
2023-04-02T08:59:45.886Z,17.86
2023-04-02T09:02:29.854Z,17.88
2023-04-02T09:05:03.685Z,17.93
2023-04-02T09:07:35.315Z,17.97
2023-04-02T09:10:08.717Z,17.93
2023-04-02T09:12:41.204Z,17.80
2023-04-02T09:15:13.860Z,17.86
2023-04-02T09:17:53.664Z,17.77
2023-04-02T09:20:28.185Z,17.69
2023-04-02T09:23:00.238Z,17.84
2023-04-02T09:25:34.675Z,17.75
2023-04-02T09:28:07.920Z,17.74
2023-04-02T09:31:00.588Z,17.75
2023-04-02T09:33:52.207Z,17.71
2023-04-02T09:36:35.847Z,17.75
2023-04-02T09:39:21.667Z,17.69
2023-04-02T09:42:05.020Z,17.74
2023-04-02T09:44:37.241Z,17.70
2023-04-02T09:47:12.816Z,17.66
2023-04-02T09:49:44.327Z,17.69
2023-04-02T09:52:33.527Z,17.78
2023-04-02T09:55:23.206Z,17.70
2023-04-02T09:58:18.967Z,17.69
2023-04-02T10:00:54.718Z,17.67
2023-04-02T10:03:31.497Z,17.72
2023-04-02T10:06:17.283Z,17.70
2023-04-02T10:08:48.806Z,17.70
2023-04-02T10:11:46.288Z,17.67
2023-04-02T10:14:26.434Z,17.65
2023-04-02T10:17:24.114Z,17.48
2023-04-02T10:20:01.193Z,17.45
2023-04-02T10:22:33.784Z,17.40
2023-04-02T10:25:16.914Z,17.47
2023-04-02T10:27:57.814Z,17.35
2023-04-02T10:30:56.181Z,17.27
2023-04-02T10:33:33.868Z,17.28
2023-04-02T10:36:22.791Z,17.20
2023-04-02T10:39:09.930Z,17.02
2023-04-02T10:41:49.103Z,16.92
2023-04-02T10:44:56.365Z,16.88
2023-04-02T10:47:48.530Z,16.77
2023-04-02T10:50:32.618Z,16.75
2023-04-02T10:53:31.568Z,16.74
2023-04-02T10:56:06.915Z,16.48
2023-04-02T10:58:46.240Z,16.69
2023-04-02T11:01:20.588Z,16.70
2023-04-02T11:03:57.849Z,16.65
2023-04-02T11:06:43.968Z,16.43
2023-04-02T11:09:25.807Z,16.46
2023-04-02T11:11:59.716Z,16.41
2023-04-02T11:14:35.114Z,16.42
2023-04-02T11:17:06.056Z,16.43
2023-04-02T11:19:39.193Z,16.34
2023-04-02T11:22:22.785Z,16.47
2023-04-02T11:24:58.181Z,16.42
2023-04-02T11:27:36.877Z,16.29
2023-04-02T11:30:29.027Z,16.08
2023-04-02T11:33:36.648Z,16.19
2023-04-02T11:36:47.746Z,16.24
2023-04-02T11:39:47.986Z,16.04
2023-04-02T11:42:35.084Z,16.04
2023-04-02T11:45:24.446Z,16.07
2023-04-02T11:48:09.648Z,16.16
2023-04-02T11:50:50.237Z,16.16
2023-04-02T11:53:33.682Z,16.15
2023-04-02T11:56:32.569Z,16.12
2023-04-02T11:59:09.835Z,16.05
2023-04-02T12:01:56.096Z,15.84
2023-04-02T12:04:54.444Z,15.80
2023-04-02T12:07:53.664Z,15.79
2023-04-02T12:10:29.522Z,15.70
2023-04-02T12:13:00.727Z,15.51
2023-04-02T12:15:48.762Z,15.56
2023-04-02T12:18:26.844Z,15.56
2023-04-02T12:20:59.238Z,15.45
2023-04-02T12:23:36.084Z,15.53
2023-04-02T12:26:10.064Z,15.48
2023-04-02T12:28:43.777Z,15.35
2023-04-02T12:31:20.417Z,15.64
2023-04-02T12:33:54.887Z,15.45
2023-04-02T12:36:26.906Z,15.46
2023-04-02T12:38:59.672Z,15.39
2023-04-02T12:41:39.169Z,15.45
2023-04-02T12:44:23.371Z,15.35
2023-04-02T12:46:55.363Z,15.33
2023-04-02T12:49:29.358Z,15.39
2023-04-02T12:52:00.889Z,15.37
2023-04-02T12:54:37.023Z,15.39
2023-04-02T12:57:32.415Z,15.27
2023-04-02T13:00:07.820Z,15.26
2023-04-02T13:02:56.965Z,15.13
2023-04-02T13:05:48.783Z,15.18
2023-04-02T13:08:23.118Z,15.27
2023-04-02T13:11:03.050Z,15.20
2023-04-02T13:13:39.430Z,15.14
2023-04-02T13:16:22.518Z,15.25
2023-04-02T13:18:54.331Z,15.09
2023-04-02T13:21:30.993Z,15.09
2023-04-02T13:24:02.669Z,14.88
2023-04-02T13:26:34.030Z,15.02
2023-04-02T13:29:30.073Z,14.99
2023-04-02T13:32:07.260Z,14.95
2023-04-02T13:34:38.941Z,14.83
2023-04-02T13:37:11.010Z,15.01
2023-04-02T13:39:42.743Z,14.79
2023-04-02T13:42:15.205Z,14.68
2023-04-02T13:44:48.125Z,14.77
2023-04-02T13:47:19.559Z,14.74
2023-04-02T13:49:50.845Z,14.68
2023-04-02T13:52:22.076Z,14.60
2023-04-02T13:54:59.876Z,14.51
2023-04-02T13:57:31.351Z,14.60
2023-04-02T14:00:02.502Z,14.57
2023-04-02T14:02:36.663Z,14.71
2023-04-02T14:05:25.482Z,14.58
2023-04-02T14:08:25.047Z,14.43
2023-04-02T14:11:13.234Z,14.46
2023-04-02T14:13:56.854Z,14.43
2023-04-02T14:16:54.571Z,14.56
2023-04-02T14:20:04.679Z,14.29
2023-04-02T14:22:41.942Z,14.29
2023-04-02T14:25:52.466Z,14.23
2023-04-02T14:28:39.375Z,14.01
2023-04-02T14:31:40.193Z,14.01
2023-04-02T14:34:30.876Z,14.16
2023-04-02T14:37:43.370Z,14.20
2023-04-02T14:40:31.387Z,14.14
2023-04-02T14:43:10.386Z,14.02
2023-04-02T14:45:59.398Z,14.21
2023-04-02T14:49:09.097Z,14.13
2023-04-02T14:51:52.217Z,14.05
2023-04-02T14:54:34.601Z,13.98
2023-04-02T14:57:20.134Z,14.04
2023-04-02T14:59:54.333Z,14.17
2023-04-02T15:02:34.702Z,14.16
2023-04-02T15:05:20.081Z,14.17
2023-04-02T15:08:08.881Z,13.95
2023-04-02T15:10:54.560Z,13.99
2023-04-02T15:13:33.094Z,13.99
2023-04-02T15:16:39.266Z,14.11
2023-04-02T15:19:19.466Z,14.18
2023-04-02T15:22:21.251Z,14.34
2023-04-02T15:25:19.874Z,14.23
2023-04-02T15:28:11.291Z,14.32
2023-04-02T15:30:45.497Z,14.38
2023-04-02T15:33:46.849Z,14.43
2023-04-02T15:36:21.223Z,14.50
2023-04-02T15:39:04.440Z,14.62
2023-04-02T15:42:03.306Z,14.56
2023-04-02T15:44:35.493Z,14.32
2023-04-02T15:47:09.887Z,14.33
2023-04-02T15:49:48.521Z,14.32
2023-04-02T15:52:19.493Z,14.45
2023-04-02T15:55:23.916Z,14.46
2023-04-02T15:58:07.236Z,14.60
2023-04-02T16:00:44.824Z,14.54
2023-04-02T16:03:48.128Z,14.52
2023-04-02T16:06:50.917Z,14.58
2023-04-02T16:09:29.170Z,14.74
2023-04-02T16:12:22.606Z,14.74
2023-04-02T16:14:56.159Z,14.62
2023-04-02T16:17:46.076Z,14.55
2023-04-02T16:20:34.767Z,14.48
2023-04-02T16:23:29.590Z,14.33
2023-04-02T16:26:15.429Z,14.25
2023-04-02T16:29:03.213Z,14.33
2023-04-02T16:31:48.245Z,14.22
2023-04-02T16:34:43.218Z,14.24
2023-04-02T16:37:24.239Z,14.39
2023-04-02T16:40:13.204Z,14.10
2023-04-02T16:43:19.401Z,14.18
2023-04-02T16:46:13.845Z,14.09
2023-04-02T16:48:53.209Z,14.02
2023-04-02T16:51:42.660Z,13.98
2023-04-02T16:54:32.396Z,14.01
2023-04-02T16:57:34.565Z,14.17
2023-04-02T17:00:23.575Z,13.98
2023-04-02T17:03:06.999Z,13.92
2023-04-02T17:06:20.357Z,13.85
2023-04-02T17:08:56.660Z,13.85
2023-04-02T17:11:39.372Z,13.90
2023-04-02T17:14:47.130Z,13.79
2023-04-02T17:17:19.096Z,13.73
2023-04-02T17:19:52.833Z,13.65
2023-04-02T17:22:25.192Z,13.67
2023-04-02T17:25:01.053Z,13.59
2023-04-02T17:27:48.877Z,13.51
2023-04-02T17:30:19.998Z,13.45
2023-04-02T17:32:51.132Z,13.53
2023-04-02T17:35:36.137Z,13.43
2023-04-02T17:38:16.680Z,13.47
2023-04-02T17:41:05.259Z,13.42
2023-04-02T17:43:46.288Z,13.42
2023-04-02T17:46:51.372Z,13.51
2023-04-02T17:49:24.457Z,13.58
2023-04-02T17:52:24.022Z,13.53
2023-04-02T17:55:04.614Z,13.33
2023-04-02T17:58:03.016Z,13.22
2023-04-02T18:01:11.425Z,13.12
2023-04-02T18:03:57.059Z,13.15
2023-04-02T18:07:13.391Z,12.98
2023-04-02T18:10:05.677Z,12.98
2023-04-02T18:12:51.871Z,13.08
2023-04-02T18:15:37.822Z,13.18
2023-04-02T18:18:46.868Z,13.13
2023-04-02T18:21:31.611Z,13.24
2023-04-02T18:24:24.072Z,13.13
2023-04-02T18:27:14.906Z,13.05
2023-04-02T18:30:10.829Z,13.27
2023-04-02T18:32:52.402Z,13.15
2023-04-02T18:35:56.015Z,13.36
2023-04-02T18:38:46.845Z,13.29
2023-04-02T18:41:48.698Z,13.29
2023-04-02T18:44:32.853Z,13.30
2023-04-02T18:47:20.240Z,13.00
2023-04-02T18:50:02.014Z,13.14
2023-04-02T18:52:33.517Z,13.03
2023-04-02T18:55:09.909Z,13.17
2023-04-02T18:57:44.684Z,13.25
2023-04-02T19:00:50.859Z,13.38
2023-04-02T19:03:35.158Z,13.71
2023-04-02T19:06:11.520Z,13.73
2023-04-02T19:08:52.773Z,14.68
2023-04-02T19:11:31.172Z,15.50
2023-04-02T19:14:13.398Z,15.86
2023-04-02T19:16:50.534Z,16.45
2023-04-02T19:19:56.885Z,16.41
2023-04-02T19:22:49.505Z,16.71
2023-04-02T19:25:44.281Z,17.29
2023-04-02T19:28:26.941Z,17.55
2023-04-02T19:31:28.601Z,17.75
2023-04-02T19:34:05.227Z,17.63
2023-04-02T19:37:03.927Z,17.23
2023-04-02T19:40:04.199Z,17.29
2023-04-02T19:42:47.522Z,17.16
2023-04-02T19:45:32.112Z,17.48
2023-04-02T19:48:26.007Z,17.57
2023-04-02T19:50:57.697Z,17.44
2023-04-02T19:53:29.046Z,17.59
2023-04-02T19:56:00.280Z,17.56
2023-04-02T19:58:32.229Z,17.64
2023-04-02T20:01:03.976Z,17.72
2023-04-02T20:03:34.729Z,17.91
2023-04-02T20:06:05.940Z,18.28
2023-04-02T20:08:39.987Z,18.51
2023-04-02T20:11:11.493Z,18.23
2023-04-02T20:13:42.951Z,18.76
2023-04-02T20:16:15.781Z,19.03
2023-04-02T20:18:47.863Z,19.07
2023-04-02T20:21:19.109Z,19.47
2023-04-02T20:23:50.399Z,19.38
2023-04-02T20:26:21.533Z,19.03
2023-04-02T20:28:53.023Z,19.72
2023-04-02T20:31:24.851Z,20.11
2023-04-02T20:33:59.350Z,20.08
2023-04-02T20:36:30.838Z,19.80
2023-04-02T20:39:02.604Z,19.84
2023-04-02T20:41:34.606Z,20.00
2023-04-02T20:44:05.481Z,20.75
2023-04-02T20:46:36.747Z,20.36
2023-04-02T20:49:08.470Z,19.99
2023-04-02T20:51:39.254Z,20.53
2023-04-02T20:54:10.823Z,20.29
2023-04-02T20:56:42.264Z,20.15
2023-04-02T20:59:13.981Z,20.21
2023-04-02T21:01:45.411Z,20.36
2023-04-02T21:04:17.203Z,20.38
2023-04-02T21:06:48.662Z,20.68
2023-04-02T21:09:22.888Z,21.22
2023-04-02T21:11:54.310Z,20.58
2023-04-02T21:14:25.584Z,20.70
2023-04-02T21:16:57.137Z,20.67
2023-04-02T21:19:29.261Z,20.95
2023-04-02T21:22:01.075Z,20.62
2023-04-02T21:24:32.516Z,20.96
2023-04-02T21:27:04.180Z,20.42
2023-04-02T21:29:35.495Z,19.85
2023-04-02T21:32:20.218Z,20.83
2023-04-02T21:34:52.720Z,20.68
2023-04-02T21:37:23.749Z,21.08
2023-04-02T21:39:55.437Z,21.34
2023-04-02T21:42:27.818Z,22.08
2023-04-02T21:44:59.325Z,21.60
2023-04-02T21:47:30.789Z,20.78
2023-04-02T21:50:01.891Z,21.11
2023-04-02T21:52:34.013Z,20.68
2023-04-02T21:55:05.493Z,20.83
2023-04-02T21:57:37.028Z,20.45
2023-04-02T22:00:13.797Z,20.68
2023-04-02T22:02:45.108Z,19.99
2023-04-02T22:05:16.789Z,19.61
2023-04-02T22:07:48.526Z,19.69
2023-04-02T22:10:19.500Z,19.77
2023-04-02T22:12:50.608Z,19.41
2023-04-02T22:15:21.967Z,19.41
2023-04-02T22:17:53.379Z,20.22
2023-04-02T22:20:25.063Z,20.43
2023-04-02T22:22:56.728Z,20.88
2023-04-02T22:25:27.757Z,21.08
2023-04-02T22:27:59.251Z,20.13
2023-04-02T22:30:31.442Z,19.98
2023-04-02T22:33:03.399Z,19.31
2023-04-02T22:35:34.174Z,19.24
2023-04-02T22:38:05.691Z,18.97
2023-04-02T22:40:37.785Z,19.43
2023-04-02T22:43:09.669Z,18.85
2023-04-02T22:45:41.314Z,18.56
2023-04-02T22:48:13.143Z,18.68
2023-04-02T22:50:44.743Z,19.20
2023-04-02T22:53:16.778Z,19.19
2023-04-02T22:55:47.862Z,19.39
2023-04-02T22:58:18.997Z,19.37
2023-04-02T23:00:50.349Z,20.94
2023-04-02T23:03:21.575Z,21.55
2023-04-02T23:06:12.015Z,22.45
2023-04-02T23:08:44.039Z,21.73
2023-04-02T23:11:21.453Z,21.13
2023-04-02T23:13:54.495Z,21.59
2023-04-02T23:16:28.376Z,21.03
2023-04-02T23:19:00.684Z,21.52
2023-04-02T23:21:32.622Z,22.03
2023-04-02T23:24:03.102Z,22.25
2023-04-02T23:26:34.758Z,22.94
2023-04-02T23:29:07.884Z,22.46
2023-04-02T23:31:39.413Z,21.86
2023-04-02T23:34:12.583Z,21.88
2023-04-02T23:36:43.783Z,22.56
2023-04-02T23:39:15.145Z,23.44
2023-04-02T23:41:46.605Z,23.80
2023-04-02T23:44:18.388Z,23.52
2023-04-02T23:46:49.603Z,23.42
2023-04-02T23:49:21.662Z,22.62
2023-04-02T23:51:52.889Z,23.00
2023-04-02T23:54:23.890Z,22.37
2023-04-02T23:56:54.976Z,21.63
2023-04-02T23:59:26.291Z,21.78
